createdAt,value
2022-08-11T00:00:01.356Z,53.36
2022-08-11T00:03:11.640Z,53.38
2022-08-11T00:06:05.536Z,53.53
2022-08-11T00:08:43.475Z,53.51
2022-08-11T00:11:26.940Z,53.70
2022-08-11T00:14:24.618Z,53.58
2022-08-11T00:17:19.200Z,53.37
2022-08-11T00:20:17.233Z,53.61
2022-08-11T00:23:10.656Z,53.68
2022-08-11T00:25:52.546Z,53.66
2022-08-11T00:28:40.490Z,53.71
2022-08-11T00:31:39.690Z,53.74
2022-08-11T00:34:36.666Z,53.78
2022-08-11T00:37:32.506Z,53.78
2022-08-11T00:40:18.716Z,53.86
2022-08-11T00:43:20.507Z,53.75
2022-08-11T00:46:23.536Z,53.91
2022-08-11T00:49:21.085Z,53.92
2022-08-11T00:52:15.632Z,53.98
2022-08-11T00:55:07.811Z,54.16
2022-08-11T00:57:52.691Z,54.02
2022-08-11T01:00:40.466Z,54.02
2022-08-11T01:03:37.677Z,54.18
2022-08-11T01:06:55.490Z,54.19
2022-08-11T01:10:19.421Z,54.26
2022-08-11T01:13:40.958Z,54.20
2022-08-11T01:16:42.687Z,54.23
2022-08-11T01:20:46.043Z,54.32
2022-08-11T01:22:52.749Z,54.29
2022-08-11T01:26:08.645Z,54.35
2022-08-11T01:28:58.556Z,54.43
2022-08-11T01:32:00.520Z,54.50
2022-08-11T01:35:04.854Z,54.50
2022-08-11T01:38:18.219Z,54.64
2022-08-11T01:42:00.259Z,54.60
2022-08-11T01:45:03.740Z,54.59
2022-08-11T01:48:08.621Z,54.67
2022-08-11T01:51:09.595Z,54.57
2022-08-11T01:54:12.621Z,54.63
2022-08-11T01:57:08.813Z,54.70
2022-08-11T02:00:00.628Z,54.65
2022-08-11T02:02:56.556Z,54.72
2022-08-11T02:05:50.572Z,54.74
2022-08-11T02:08:50.694Z,54.80
2022-08-11T02:11:46.538Z,54.72
2022-08-11T02:14:41.676Z,54.73
2022-08-11T02:17:55.592Z,54.84
2022-08-11T02:20:58.111Z,54.87
2022-08-11T02:24:05.344Z,54.80
2022-08-11T02:27:12.669Z,54.81
2022-08-11T02:30:08.668Z,54.95
2022-08-11T02:33:18.927Z,54.98
2022-08-11T02:36:13.617Z,54.98
2022-08-11T02:39:10.607Z,55.05
2022-08-11T02:42:31.988Z,55.15
2022-08-11T02:45:47.157Z,55.11
2022-08-11T02:48:51.308Z,55.19
2022-08-11T02:51:43.654Z,55.20
2022-08-11T02:54:46.586Z,55.27
2022-08-11T02:57:48.805Z,55.23
2022-08-11T03:00:46.048Z,55.27
2022-08-11T03:03:40.394Z,55.24
2022-08-11T03:06:34.321Z,55.27
2022-08-11T03:09:16.067Z,55.46
2022-08-11T03:12:27.628Z,55.58
2022-08-11T03:15:30.759Z,55.62
2022-08-11T03:18:27.209Z,55.56
2022-08-11T03:22:01.577Z,55.62
2022-08-11T03:25:12.757Z,55.63
2022-08-11T03:28:07.703Z,55.62
2022-08-11T03:30:48.584Z,55.68
2022-08-11T03:34:05.631Z,55.70
2022-08-11T03:37:45.587Z,55.74
2022-08-11T03:40:59.792Z,55.67
2022-08-11T03:44:43.289Z,55.72
2022-08-11T03:47:57.730Z,55.79
2022-08-11T03:51:07.474Z,55.67
2022-08-11T03:54:01.533Z,55.82
2022-08-11T03:57:00.963Z,55.88
2022-08-11T03:59:48.594Z,55.97
2022-08-11T04:03:05.378Z,55.88
2022-08-11T04:06:27.901Z,56.02
2022-08-11T04:09:34.577Z,56.03
2022-08-11T04:12:49.408Z,56.00
2022-08-11T04:16:12.366Z,56.17
2022-08-11T04:19:05.402Z,56.36
2022-08-11T04:22:02.636Z,56.29
2022-08-11T04:24:50.485Z,56.30
2022-08-11T04:27:54.316Z,56.42
2022-08-11T04:34:02.515Z,56.47
2022-08-11T04:37:22.566Z,56.46
2022-08-11T04:40:44.326Z,56.55
2022-08-11T04:44:05.563Z,56.68
2022-08-11T04:47:03.442Z,56.86
2022-08-11T04:50:16.653Z,56.89
2022-08-11T04:53:22.272Z,56.94
2022-08-11T04:56:45.687Z,56.95
2022-08-11T05:00:03.735Z,57.24
2022-08-11T05:03:12.323Z,57.30
2022-08-11T05:06:21.467Z,57.30
2022-08-11T05:09:46.445Z,57.36
2022-08-11T05:12:55.577Z,57.28
2022-08-11T05:16:09.807Z,57.51
2022-08-11T05:19:20.676Z,57.63
2022-08-11T05:22:30.089Z,57.67
2022-08-11T05:26:43.310Z,57.70
2022-08-11T05:29:19.311Z,57.93
2022-08-11T05:32:31.480Z,58.05
2022-08-11T05:36:01.223Z,58.18
2022-08-11T05:38:46.782Z,58.35
2022-08-11T05:41:50.393Z,58.29
2022-08-11T05:45:01.445Z,58.31
2022-08-11T05:48:04.339Z,58.41
2022-08-11T05:51:00.733Z,58.46
2022-08-11T05:54:28.682Z,58.61
2022-08-11T05:57:48.589Z,58.73
2022-08-11T06:00:50.674Z,58.85
2022-08-11T06:03:58.536Z,59.03
2022-08-11T06:07:06.789Z,59.05
2022-08-11T06:09:57.964Z,59.01
2022-08-11T06:12:49.415Z,59.07
2022-08-11T06:15:41.513Z,59.22
2022-08-11T06:18:39.286Z,59.56
2022-08-11T06:21:20.824Z,59.46
2022-08-11T06:23:59.771Z,59.47
2022-08-11T06:26:55.150Z,59.62
2022-08-11T06:29:38.013Z,59.54
2022-08-11T06:32:20.225Z,59.55
2022-08-11T06:35:21.124Z,59.38
2022-08-11T06:37:59.126Z,59.27
2022-08-11T06:40:43.825Z,59.19
2022-08-11T06:43:33.180Z,59.04
2022-08-11T06:46:12.002Z,59.07
2022-08-11T06:49:02.892Z,58.90
2022-08-11T06:51:41.811Z,58.78
2022-08-11T06:54:17.012Z,58.80
2022-08-11T06:57:28.868Z,58.72
2022-08-11T07:00:29.688Z,58.29
2022-08-11T07:03:10.337Z,58.23
2022-08-11T07:05:54.125Z,58.13
2022-08-11T07:08:54.289Z,58.18
2022-08-11T07:12:13.513Z,57.94
2022-08-11T07:16:10.451Z,57.62
2022-08-11T07:19:06.596Z,57.44
2022-08-11T07:22:03.765Z,57.46
2022-08-11T07:25:02.466Z,57.27
2022-08-11T07:28:03.827Z,57.06
2022-08-11T07:30:41.530Z,56.94
2022-08-11T07:34:05.844Z,56.73
2022-08-11T07:36:07.242Z,56.44
2022-08-11T07:38:47.641Z,56.35
2022-08-11T07:41:22.052Z,56.10
2022-08-11T07:43:57.176Z,55.94
2022-08-11T07:46:45.002Z,56.01
2022-08-11T07:49:32.834Z,55.37
2022-08-11T07:52:31.091Z,55.58
2022-08-11T07:55:50.919Z,55.15
2022-08-11T07:58:45.179Z,55.14
2022-08-11T08:04:56.778Z,55.28
2022-08-11T08:07:44.514Z,55.08
2022-08-11T08:10:38.298Z,54.77
2022-08-11T08:13:29.041Z,54.88
2022-08-11T08:16:31.360Z,54.58
2022-08-11T08:19:02.289Z,54.48
2022-08-11T08:21:33.007Z,54.22
2022-08-11T08:24:05.601Z,54.16
2022-08-11T08:26:57.188Z,53.90
2022-08-11T08:29:47.562Z,53.76
2022-08-11T08:32:22.466Z,53.42
2022-08-11T08:34:53.605Z,53.20
2022-08-11T08:37:45.420Z,52.97
2022-08-11T08:40:23.593Z,52.94
2022-08-11T08:43:00.384Z,52.61
2022-08-11T08:45:38.839Z,52.71
2022-08-11T08:48:17.594Z,52.48
2022-08-11T08:51:58.627Z,52.29
2022-08-11T08:54:38.894Z,51.93
2022-08-11T08:57:12.432Z,51.81
2022-08-11T08:59:48.709Z,51.77
2022-08-11T09:02:39.404Z,51.80
2022-08-11T09:05:11.248Z,51.52
2022-08-11T09:07:43.764Z,51.22
2022-08-11T09:10:18.070Z,50.82
2022-08-11T09:12:49.838Z,50.67
2022-08-11T09:15:22.770Z,50.74
2022-08-11T09:18:20.025Z,50.32
2022-08-11T09:20:54.947Z,50.16
2022-08-11T09:27:02.924Z,49.61
2022-08-11T09:29:38.175Z,49.37
2022-08-11T09:32:11.994Z,49.21
2022-08-11T09:34:46.798Z,49.12
2022-08-11T09:37:54.095Z,48.94
2022-08-11T09:40:30.937Z,48.58
2022-08-11T09:43:22.836Z,48.32
2022-08-11T09:45:59.511Z,47.93
2022-08-11T09:48:33.863Z,48.01
2022-08-11T09:51:07.589Z,47.93
2022-08-11T09:53:42.024Z,47.51
2022-08-11T09:56:50.849Z,47.31
2022-08-11T09:59:24.374Z,47.33
2022-08-11T10:02:00.985Z,46.82
2022-08-11T10:04:43.281Z,46.51
2022-08-11T10:07:17.229Z,46.40
2022-08-11T10:10:23.205Z,46.32
2022-08-11T10:14:31.582Z,46.10
2022-08-11T10:16:15.071Z,45.88
2022-08-11T10:18:53.608Z,45.99
2022-08-11T10:21:35.052Z,45.79
2022-08-11T10:24:25.424Z,45.59
2022-08-11T10:27:00.301Z,45.22
2022-08-11T10:29:55.693Z,45.14
2022-08-11T10:32:57.283Z,44.86
2022-08-11T10:35:32.699Z,44.74
2022-08-11T10:38:06.849Z,44.30
2022-08-11T10:40:42.891Z,44.43
2022-08-11T10:43:59.843Z,43.94
2022-08-11T10:46:29.748Z,44.05
2022-08-11T10:49:02.841Z,43.71
2022-08-11T10:51:53.832Z,43.62
2022-08-11T10:54:42.809Z,43.38
2022-08-11T10:57:33.778Z,43.37
2022-08-11T11:00:06.725Z,43.65
2022-08-11T11:02:37.975Z,43.41
2022-08-11T11:05:31.365Z,43.61
2022-08-11T11:08:30.711Z,43.37
2022-08-11T11:11:03.666Z,42.98
2022-08-11T11:13:57.336Z,42.85
2022-08-11T11:16:43.338Z,42.66
2022-08-11T11:19:19.695Z,42.75
2022-08-11T11:21:53.583Z,43.00
2022-08-11T11:24:37.874Z,42.82
2022-08-11T11:27:23.351Z,42.96
2022-08-11T11:30:09.538Z,42.81
2022-08-11T11:33:21.959Z,42.93
2022-08-11T11:36:13.043Z,42.16
2022-08-11T11:38:44.675Z,42.14
2022-08-11T11:41:27.603Z,42.29
2022-08-11T11:44:01.460Z,42.08
2022-08-11T11:46:38.897Z,41.62
2022-08-11T11:49:15.852Z,41.61
2022-08-11T11:51:54.154Z,41.51
2022-08-11T11:54:28.466Z,41.44
2022-08-11T11:57:22.914Z,41.54
2022-08-11T12:00:12.510Z,41.38
2022-08-11T12:02:44.068Z,41.36
2022-08-11T12:05:15.200Z,41.23
2022-08-11T12:08:05.237Z,41.18
2022-08-11T12:11:21.252Z,40.58
2022-08-11T12:13:54.296Z,40.57
2022-08-11T12:16:33.871Z,40.71
2022-08-11T12:19:10.921Z,40.66
2022-08-11T12:22:03.998Z,40.30
2022-08-11T12:24:54.393Z,40.20
2022-08-11T12:27:27.334Z,40.01
2022-08-11T12:30:06.364Z,40.02
2022-08-11T12:32:40.661Z,39.96
2022-08-11T12:35:13.047Z,39.72
2022-08-11T12:37:49.278Z,39.64
2022-08-11T12:41:03.507Z,39.46
2022-08-11T12:43:56.863Z,39.28
2022-08-11T12:46:33.538Z,39.29
2022-08-11T12:49:31.671Z,39.00
2022-08-11T12:52:15.768Z,39.03
2022-08-11T12:54:52.404Z,38.79
2022-08-11T12:58:06.756Z,38.79
2022-08-11T13:00:54.611Z,38.58
2022-08-11T13:03:43.780Z,38.79
2022-08-11T13:06:26.348Z,38.30
2022-08-11T13:09:01.515Z,38.48
2022-08-11T13:11:55.662Z,38.31
2022-08-11T13:14:31.580Z,38.66
2022-08-11T13:17:20.119Z,38.50
2022-08-11T13:19:52.357Z,38.26
2022-08-11T13:22:24.990Z,38.21
2022-08-11T13:24:57.029Z,37.96
2022-08-11T13:27:28.074Z,38.21
2022-08-11T13:30:12.606Z,38.09
2022-08-11T13:32:48.054Z,37.88
2022-08-11T13:35:20.454Z,37.90
2022-08-11T13:38:19.038Z,37.70
2022-08-11T13:40:55.826Z,37.59
2022-08-11T13:43:29.436Z,37.64
2022-08-11T13:46:23.237Z,37.41
2022-08-11T13:49:33.173Z,37.44
2022-08-11T13:52:24.152Z,37.71
2022-08-11T13:55:45.053Z,37.47
2022-08-11T13:59:05.987Z,37.60
2022-08-11T14:02:21.569Z,37.58
2022-08-11T14:05:27.253Z,37.18
2022-08-11T14:08:06.578Z,37.03
2022-08-11T14:12:19.989Z,37.26
2022-08-11T14:14:14.178Z,37.00
2022-08-11T14:16:52.996Z,36.94
2022-08-11T14:19:30.417Z,37.05
2022-08-11T14:22:12.277Z,37.00
2022-08-11T14:25:03.124Z,36.91
2022-08-11T14:28:30.424Z,36.86
2022-08-11T14:31:04.443Z,36.79
2022-08-11T14:33:58.872Z,36.99
2022-08-11T14:37:29.603Z,37.05
2022-08-11T14:40:35.930Z,37.22
2022-08-11T14:44:13.992Z,37.24
2022-08-11T14:47:23.021Z,37.15
2022-08-11T14:50:27.872Z,37.44
2022-08-11T14:53:20.296Z,37.48
2022-08-11T14:56:39.286Z,36.93
2022-08-11T14:59:45.131Z,36.96
2022-08-11T15:06:14.407Z,36.58
2022-08-11T15:09:17.284Z,36.73
2022-08-11T15:12:32.640Z,36.69
2022-08-11T15:16:05.632Z,36.74
2022-08-11T15:18:51.050Z,36.54
2022-08-11T15:21:39.450Z,36.67
2022-08-11T15:24:31.546Z,36.61
2022-08-11T15:27:43.757Z,36.49
2022-08-11T15:30:45.061Z,36.54
2022-08-11T15:33:58.436Z,36.67
2022-08-11T15:36:52.164Z,36.72
2022-08-11T15:40:31.300Z,37.25
2022-08-11T15:43:57.599Z,37.03
2022-08-11T15:47:04.634Z,36.99
2022-08-11T15:50:10.430Z,36.87
2022-08-11T15:52:55.693Z,36.72
2022-08-11T15:55:33.160Z,36.76
2022-08-11T15:58:35.163Z,36.67
2022-08-11T16:01:45.367Z,36.70
2022-08-11T16:04:27.872Z,36.67
2022-08-11T16:07:12.962Z,36.45
2022-08-11T16:10:09.449Z,36.67
2022-08-11T16:13:22.102Z,36.83
2022-08-11T16:16:16.275Z,37.05
2022-08-11T16:19:26.922Z,37.05
2022-08-11T16:22:01.992Z,37.17
2022-08-11T16:27:04.683Z,37.44
2022-08-11T16:27:26.603Z,37.78
2022-08-11T16:30:08.746Z,37.82
2022-08-11T16:32:54.088Z,37.92
2022-08-11T16:36:04.377Z,38.19
2022-08-11T16:38:50.355Z,37.90
2022-08-11T16:41:54.400Z,38.36
2022-08-11T16:44:53.414Z,38.31
2022-08-11T16:48:02.927Z,38.47
2022-08-11T16:50:57.349Z,38.36
2022-08-11T16:53:54.944Z,38.36
2022-08-11T16:56:52.950Z,38.61
2022-08-11T16:59:40.897Z,39.06
2022-08-11T17:02:52.330Z,39.05
2022-08-11T17:05:54.716Z,39.29
2022-08-11T17:09:00.602Z,39.37
2022-08-11T17:12:13.479Z,39.55
2022-08-11T17:15:02.079Z,39.61
2022-08-11T17:17:40.607Z,39.51
2022-08-11T17:20:38.595Z,39.70
2022-08-11T17:23:32.091Z,39.47
2022-08-11T17:26:04.772Z,39.47
2022-08-11T17:28:38.028Z,39.57
2022-08-11T17:31:26.312Z,39.57
2022-08-11T17:34:15.803Z,39.67
2022-08-11T17:36:46.248Z,39.75
2022-08-11T17:39:17.780Z,39.88
2022-08-11T17:42:38.012Z,40.10
2022-08-11T17:45:27.805Z,40.32
2022-08-11T17:48:29.193Z,40.33
2022-08-11T17:51:06.989Z,40.69
2022-08-11T17:54:18.067Z,40.65
2022-08-11T17:57:21.009Z,40.68
2022-08-11T17:59:57.449Z,40.73
2022-08-11T18:02:52.094Z,40.74
2022-08-11T18:05:27.353Z,40.88
2022-08-11T18:08:19.388Z,40.93
2022-08-11T18:11:07.843Z,41.07
2022-08-11T18:14:00.060Z,41.16
2022-08-11T18:16:48.858Z,41.24
2022-08-11T18:19:36.659Z,41.48
2022-08-11T18:22:39.620Z,41.30
2022-08-11T18:25:43.350Z,41.41
2022-08-11T18:28:36.145Z,41.69
2022-08-11T18:31:26.550Z,41.48
2022-08-11T18:34:26.001Z,41.59
2022-08-11T18:37:29.307Z,41.49
2022-08-11T18:40:47.610Z,41.68
2022-08-11T18:45:01.461Z,41.74
2022-08-11T18:52:13.386Z,41.77
2022-08-11T18:55:27.634Z,41.96
2022-08-11T18:58:23.626Z,41.89
2022-08-11T19:06:32.467Z,41.98
2022-08-11T19:09:15.897Z,42.01
2022-08-11T19:12:19.449Z,42.04
2022-08-11T19:15:12.183Z,42.02
2022-08-11T19:18:22.156Z,42.09
2022-08-11T19:21:12.453Z,42.30
2022-08-11T19:24:09.246Z,42.21
2022-08-11T19:26:58.740Z,42.22
2022-08-11T19:30:04.690Z,42.18
2022-08-11T19:33:00.874Z,42.36
2022-08-11T19:35:52.661Z,42.43
2022-08-11T19:38:40.742Z,42.34
2022-08-11T19:41:56.530Z,42.56
2022-08-11T19:44:41.649Z,42.51
2022-08-11T19:47:31.909Z,42.36
2022-08-11T19:50:38.889Z,42.48
2022-08-11T19:53:32.214Z,42.69
2022-08-11T19:56:20.437Z,42.74
2022-08-11T19:59:10.330Z,42.78
2022-08-11T20:02:13.488Z,42.85
2022-08-11T20:05:02.551Z,42.84
2022-08-11T20:07:52.380Z,42.86
2022-08-11T20:10:41.235Z,43.17
2022-08-11T20:13:30.765Z,43.07
2022-08-11T20:16:21.038Z,43.09
2022-08-11T20:19:11.024Z,43.20
2022-08-11T20:22:05.961Z,43.18
2022-08-11T20:24:57.753Z,43.19
2022-08-11T20:27:51.263Z,43.31
2022-08-11T20:30:45.191Z,43.40
2022-08-11T20:33:34.437Z,43.40
2022-08-11T20:36:23.496Z,43.57
2022-08-11T20:39:13.152Z,43.60
2022-08-11T20:42:02.132Z,43.77
2022-08-11T20:45:02.950Z,43.69
2022-08-11T20:47:59.404Z,43.70
2022-08-11T20:50:50.588Z,43.85
2022-08-11T20:54:13.697Z,44.06
2022-08-11T20:57:12.693Z,44.13
2022-08-11T21:00:05.008Z,44.07
2022-08-11T21:03:36.081Z,44.07
2022-08-11T21:06:33.114Z,44.16
2022-08-11T21:09:25.064Z,44.30
2022-08-11T21:12:50.535Z,44.30
2022-08-11T21:16:02.838Z,44.35
2022-08-11T21:19:11.037Z,44.28
2022-08-11T21:22:03.960Z,44.55
2022-08-11T21:24:53.523Z,44.47
2022-08-11T21:27:45.189Z,44.62
2022-08-11T21:30:33.086Z,44.53
2022-08-11T21:33:22.338Z,44.68
2022-08-11T21:36:43.776Z,44.52
2022-08-11T21:39:41.107Z,44.60
2022-08-11T21:42:30.710Z,44.73
2022-08-11T21:45:19.121Z,44.61
2022-08-11T21:48:09.120Z,44.79
2022-08-11T21:51:05.655Z,44.77
2022-08-11T21:53:54.638Z,44.89
2022-08-11T21:56:46.469Z,44.76
2022-08-11T21:59:41.646Z,44.94
2022-08-11T22:02:29.369Z,45.00
2022-08-11T22:05:17.320Z,45.11
2022-08-11T22:08:05.707Z,45.27
2022-08-11T22:10:53.734Z,45.30
2022-08-11T22:13:41.555Z,45.43
2022-08-11T22:16:49.336Z,45.71
2022-08-11T22:19:38.192Z,45.61
2022-08-11T22:22:27.398Z,45.84
2022-08-11T22:25:16.655Z,45.82
2022-08-11T22:28:06.496Z,45.99
2022-08-11T22:30:54.405Z,46.04
2022-08-11T22:34:00.114Z,45.94
2022-08-11T22:36:54.277Z,46.01
2022-08-11T22:39:44.259Z,46.04
2022-08-11T22:42:33.445Z,46.19
2022-08-11T22:45:21.738Z,46.24
2022-08-11T22:48:10.608Z,46.26
2022-08-11T22:50:59.549Z,46.37
2022-08-11T22:53:57.632Z,46.20
2022-08-11T22:56:48.797Z,46.35
2022-08-11T22:59:39.692Z,46.35
2022-08-11T23:02:28.169Z,46.34
2022-08-11T23:05:20.254Z,46.47
2022-08-11T23:08:08.938Z,46.37
2022-08-11T23:10:57.996Z,46.49
2022-08-11T23:13:48.000Z,46.49
2022-08-11T23:16:37.868Z,46.41
2022-08-11T23:20:00.340Z,46.50
2022-08-11T23:22:43.743Z,46.45
2022-08-11T23:25:41.126Z,46.76
2022-08-11T23:28:33.255Z,46.75
2022-08-11T23:31:21.777Z,46.76
2022-08-11T23:34:41.540Z,46.90
2022-08-11T23:37:21.755Z,46.78
2022-08-11T23:40:10.333Z,46.86
2022-08-11T23:42:59.210Z,46.99
2022-08-11T23:45:46.818Z,46.89
2022-08-11T23:48:35.637Z,47.03
2022-08-11T23:51:25.177Z,47.22
2022-08-11T23:54:32.656Z,47.20
2022-08-11T23:57:24.749Z,47.45
